createdAt,value
2016-11-25T12:22:21.738Z,7444
2016-11-25T12:23:20.747Z,7920
2016-11-25T12:24:20.953Z,7992
2016-11-25T12:25:20.444Z,7876
2016-11-25T12:26:20.492Z,7360
2016-11-25T12:27:20.618Z,7188
2016-11-25T12:28:21.166Z,7376
2016-11-25T12:29:20.635Z,7552
2016-11-25T12:30:20.675Z,7652
2016-11-25T12:31:20.742Z,7728
2016-11-25T12:32:21.045Z,7432
2016-11-25T12:33:20.880Z,7316
2016-11-25T12:34:20.931Z,7324
2016-11-25T12:35:20.954Z,6924
2016-11-25T12:36:21.509Z,7216
2016-11-25T12:37:21.170Z,7400
2016-11-25T12:38:21.350Z,7604
2016-11-25T12:39:21.198Z,7424
2016-11-25T12:40:21.209Z,7136
2016-11-25T12:41:21.266Z,7084
2016-11-25T12:42:22.116Z,6716
2016-11-25T12:43:21.887Z,6744
2016-11-25T12:44:21.449Z,7400
2016-11-25T12:45:22.035Z,7184
2016-11-25T12:46:21.579Z,7568
2016-11-25T12:47:21.664Z,7736
2016-11-25T12:48:22.238Z,7928
2016-11-25T12:49:21.724Z,7864
2016-11-25T12:50:21.742Z,7748
2016-11-25T12:51:21.823Z,7220
2016-11-25T12:52:22.665Z,7488
2016-11-25T12:53:22.451Z,7484
2016-11-25T12:54:21.985Z,7628
2016-11-25T12:55:22.035Z,7672
2016-11-25T12:56:22.612Z,7652
2016-11-25T12:57:22.090Z,7396
2016-11-25T12:58:22.200Z,7708
2016-11-25T12:59:22.762Z,7740
2016-11-25T13:00:22.290Z,7700
2016-11-25T13:01:22.324Z,7492
2016-11-25T13:02:22.383Z,7368
2016-11-25T13:03:23.292Z,7188
2016-11-25T13:04:22.521Z,7096
2016-11-25T13:05:22.583Z,6896
2016-11-25T13:06:22.623Z,6816
2016-11-25T13:07:22.722Z,6840
2016-11-25T13:08:22.794Z,7000
2016-11-25T13:09:22.802Z,6980
2016-11-25T13:10:22.826Z,7092
2016-11-25T13:11:22.840Z,7112
2016-11-25T13:12:22.940Z,6972
2016-11-25T13:13:23.054Z,6912
2016-11-25T13:14:23.030Z,7284
2016-11-25T13:15:23.083Z,7180
2016-11-25T13:16:23.149Z,7068
2016-11-25T13:17:23.731Z,6960
2016-11-25T13:18:23.521Z,7176
2016-11-25T13:19:23.326Z,7240
2016-11-25T13:20:23.932Z,7316
2016-11-25T13:21:23.423Z,7256
2016-11-25T13:22:23.467Z,7200
2016-11-25T13:23:23.833Z,7100
2016-11-25T13:24:23.582Z,7068
2016-11-25T13:25:23.604Z,6948
2016-11-25T13:26:24.197Z,6920
2016-11-25T13:27:23.697Z,6672
2016-11-25T13:28:23.876Z,6724
2016-11-25T13:29:23.853Z,6400
2016-11-25T13:30:23.897Z,6244
2016-11-25T13:31:23.955Z,6264
2016-11-25T13:32:24.015Z,6440
2016-11-25T13:33:24.266Z,6596
2016-11-25T13:34:24.080Z,6704
2016-11-25T13:35:24.180Z,6876
2016-11-25T13:36:24.216Z,6780
2016-11-25T13:37:25.381Z,6720
2016-11-25T13:38:24.336Z,6104
2016-11-25T13:39:24.856Z,6008
2016-11-25T13:40:24.382Z,5760
2016-11-25T13:41:24.470Z,6204
2016-11-25T13:42:25.073Z,6364
2016-11-25T13:43:24.634Z,6412
2016-11-25T13:44:24.759Z,6468
2016-11-25T13:45:25.213Z,6292
2016-11-25T13:46:24.774Z,6264
2016-11-25T13:47:24.853Z,6116
2016-11-25T13:48:24.865Z,6188
2016-11-25T13:49:25.167Z,6024
2016-11-25T13:50:25.468Z,5828
2016-11-25T13:51:25.044Z,5572
2016-11-25T13:52:25.074Z,5560
2016-11-25T13:53:25.614Z,5348
2016-11-25T13:54:25.264Z,5260
2016-11-25T13:55:26.323Z,5256
2016-11-25T13:56:25.295Z,5368
2016-11-25T13:57:25.832Z,5512
2016-11-25T13:58:25.367Z,5612
2016-11-25T13:59:25.584Z,5768
2016-11-25T14:00:25.479Z,5780
2016-11-25T14:01:25.609Z,5764
2016-11-25T14:02:25.607Z,5860
2016-11-25T14:03:25.702Z,5840
2016-11-25T14:04:25.778Z,5896
2016-11-25T14:05:25.793Z,5824
2016-11-25T14:06:25.812Z,5852
2016-11-25T14:07:25.905Z,5880
2016-11-25T14:08:26.419Z,5964
2016-11-25T14:09:26.204Z,5988
2016-11-25T14:10:26.017Z,6048
2016-11-25T14:11:26.054Z,6068
2016-11-25T14:12:26.118Z,6032
2016-11-25T14:13:26.196Z,6012
2016-11-25T14:14:26.800Z,5932
2016-11-25T14:15:26.882Z,5824
2016-11-25T14:16:27.115Z,5788
2016-11-25T14:17:26.487Z,5820
2016-11-25T14:18:26.459Z,5788
2016-11-25T14:19:26.599Z,5732
2016-11-25T14:20:26.683Z,5652
2016-11-25T14:21:26.687Z,5596
2016-11-25T14:22:26.671Z,5560
2016-11-25T14:23:27.248Z,5364
2016-11-25T14:24:27.325Z,5348
2016-11-25T14:25:26.953Z,5440
2016-11-25T14:26:26.928Z,5388
2016-11-25T14:27:26.974Z,5424
2016-11-25T14:28:27.071Z,5476
2016-11-25T14:29:27.116Z,5440
2016-11-25T14:30:27.330Z,5460
2016-11-25T14:31:27.769Z,5416
2016-11-25T14:32:27.756Z,5432
2016-11-25T14:33:27.882Z,5444
2016-11-25T14:34:27.321Z,5536
2016-11-25T14:35:27.593Z,5504
2016-11-25T14:36:27.959Z,5520
2016-11-25T14:37:27.521Z,5516
2016-11-25T14:38:28.336Z,5528
2016-11-25T14:39:28.876Z,5492
2016-11-25T14:40:27.805Z,5520
2016-11-25T14:41:27.738Z,5420
2016-11-25T14:42:28.305Z,5344
2016-11-25T14:43:27.844Z,5208
2016-11-25T14:44:27.872Z,5152
2016-11-25T14:45:28.055Z,5088
2016-11-25T14:46:28.571Z,5064
2016-11-25T14:47:28.069Z,5008
2016-11-25T14:48:28.718Z,5064
2016-11-25T14:49:28.274Z,5124
2016-11-25T14:50:28.398Z,5136
2016-11-25T14:51:28.811Z,5204
2016-11-25T14:52:28.817Z,5248
2016-11-25T14:53:28.453Z,5360
2016-11-25T14:54:28.440Z,5380
2016-11-25T14:55:28.520Z,5336
2016-11-25T14:56:28.618Z,5284
2016-11-25T14:57:28.592Z,5220
2016-11-25T14:58:29.272Z,5176
2016-11-25T14:59:28.830Z,5164
2016-11-25T15:00:29.831Z,5096
2016-11-25T15:01:29.371Z,5080
2016-11-25T15:02:29.365Z,5020
2016-11-25T15:03:29.716Z,5004
2016-11-25T15:04:29.557Z,4976
2016-11-25T15:05:30.045Z,4980
2016-11-25T15:06:29.196Z,4956
2016-11-25T15:07:29.129Z,4944
2016-11-25T15:08:29.444Z,4948
2016-11-25T15:09:29.901Z,4936
2016-11-25T15:10:29.835Z,4940
2016-11-25T15:11:30.610Z,4916
2016-11-25T15:12:29.917Z,4880
2016-11-25T15:13:30.537Z,4740
2016-11-25T15:14:30.601Z,4668
2016-11-25T15:15:30.115Z,4780
2016-11-25T15:16:29.868Z,4756
2016-11-25T15:17:31.255Z,4816
2016-11-25T15:18:30.254Z,4820
2016-11-25T15:19:30.317Z,4780
2016-11-25T15:20:31.069Z,4792
2016-11-25T15:21:30.744Z,4804
2016-11-25T15:22:31.155Z,4836
2016-11-25T15:23:30.653Z,4844
2016-11-25T15:24:30.077Z,4804
2016-11-25T15:25:30.210Z,4804
2016-11-25T15:26:30.916Z,4864
2016-11-25T15:27:30.390Z,4852
2016-11-25T15:28:30.274Z,4756
2016-11-25T15:29:30.906Z,4688
2016-11-25T15:30:30.409Z,1360
2016-11-25T15:31:31.094Z,1456
2016-11-25T15:32:31.578Z,752
2016-11-25T15:33:30.573Z,748
2016-11-25T15:34:31.134Z,1432
2016-11-25T15:35:30.687Z,1408
2016-11-25T15:36:30.745Z,1472
2016-11-25T15:37:31.306Z,1576
2016-11-25T15:38:31.383Z,1552
2016-11-25T15:39:30.932Z,1524
2016-11-25T15:40:30.990Z,1540
2016-11-25T15:41:30.995Z,1544
2016-11-25T15:42:31.332Z,1500
2016-11-25T15:43:31.111Z,1504
2016-11-25T15:44:31.192Z,1524
2016-11-25T15:45:31.336Z,1324
2016-11-25T15:47:53.025Z,1100
2016-11-25T15:48:20.900Z,1300
2016-11-25T15:48:48.768Z,540
2016-11-25T15:49:16.607Z,1032
2016-11-25T15:49:44.455Z,1000
2016-11-25T15:50:12.216Z,968
2016-11-25T15:50:40.225Z,5308
2016-11-25T15:51:08.079Z,5316
2016-11-25T15:51:35.865Z,5356
2016-11-25T15:52:03.738Z,5376
2016-11-25T15:52:31.764Z,5356
2016-11-25T15:52:59.816Z,5336
2016-11-25T15:53:27.577Z,5332
2016-11-25T15:53:55.416Z,5316
2016-11-25T15:54:23.207Z,5300
2016-11-25T15:54:50.997Z,5324
2016-11-25T15:55:18.774Z,5324
2016-11-25T15:55:46.584Z,5332
2016-11-25T15:56:14.555Z,5308
2016-11-25T15:56:42.470Z,5312
2016-11-25T15:57:10.240Z,5324
2016-11-25T15:57:38.002Z,5060
2016-11-25T15:58:05.983Z,5260
2016-11-25T15:58:33.935Z,5256
2016-11-25T15:59:01.680Z,5172
2016-11-25T15:59:29.517Z,5048
2016-11-25T15:59:57.383Z,5044
2016-11-25T16:00:25.246Z,5112
2016-11-25T16:00:53.337Z,5156
2016-11-25T16:01:21.366Z,5096
2016-11-25T16:01:49.466Z,4940
2016-11-25T16:02:17.303Z,4856
2016-11-25T16:02:45.272Z,4824
2016-11-25T16:03:13.348Z,4712
2016-11-25T16:03:41.538Z,4832
2016-11-25T16:04:09.485Z,4984
2016-11-25T16:04:37.467Z,4860
2016-11-25T16:05:05.332Z,4876
2016-11-25T16:05:33.197Z,4976
2016-11-25T16:06:01.056Z,4860
2016-11-25T16:06:28.954Z,4896
2016-11-25T16:06:56.756Z,4976
2016-11-25T16:07:24.517Z,5000
2016-11-25T16:07:52.511Z,5040
2016-11-25T16:08:20.397Z,4860
2016-11-25T16:08:48.208Z,4724
2016-11-25T16:09:16.164Z,4680
2016-11-25T16:09:44.036Z,5116
2016-11-25T16:10:12.109Z,5108
2016-11-25T16:10:39.883Z,5144
2016-11-25T16:11:07.726Z,5152
2016-11-25T16:11:35.702Z,5140
2016-11-25T16:12:03.502Z,5112
2016-11-25T16:12:31.479Z,4936
2016-11-25T16:12:59.467Z,4884
2016-11-25T16:13:27.367Z,4908
2016-11-25T16:13:55.265Z,4712
2016-11-25T16:14:23.276Z,4552
2016-11-25T16:14:51.503Z,4500
2016-11-25T16:15:19.283Z,4576
2016-11-25T16:15:47.056Z,4788
2016-11-25T16:16:14.910Z,4924
2016-11-25T16:16:42.716Z,4992
2016-11-25T16:17:10.639Z,5072
2016-11-25T16:17:38.429Z,5272
2016-11-25T16:18:06.323Z,5488
2016-11-25T16:18:34.303Z,5612
2016-11-25T16:19:02.139Z,5696
2016-11-25T16:19:30.500Z,5720
2016-11-25T16:19:58.481Z,5480
2016-11-25T16:20:26.367Z,5624
2016-11-25T16:20:54.158Z,5764
2016-11-25T16:21:22.102Z,5708
2016-11-25T16:21:50.032Z,5752
2016-11-25T16:22:17.925Z,5736
2016-11-25T16:22:45.790Z,5752
2016-11-25T16:23:13.966Z,5700
2016-11-25T16:23:41.845Z,5620
2016-11-25T16:24:09.913Z,5312
2016-11-25T16:24:37.941Z,5080
2016-11-25T16:25:05.802Z,4852
2016-11-25T16:25:33.638Z,4728
2016-11-25T16:26:01.409Z,4608
2016-11-25T16:26:29.272Z,4584
2016-11-25T16:26:57.085Z,4572
2016-11-25T16:27:25.308Z,4456
2016-11-25T16:27:53.392Z,4468
2016-11-25T16:28:21.248Z,4548
2016-11-25T16:28:49.082Z,4552
2016-11-25T16:29:16.926Z,4900
2016-11-25T16:29:44.882Z,5036
2016-11-25T16:30:12.766Z,5068
2016-11-25T16:30:40.609Z,5128
2016-11-25T16:31:08.417Z,5324
2016-11-25T16:31:36.176Z,5404
2016-11-25T16:32:04.076Z,5372
2016-11-25T16:32:31.887Z,5440
2016-11-25T16:32:59.840Z,5244
2016-11-25T16:33:27.690Z,5376
2016-11-25T16:33:55.503Z,5548
2016-11-25T16:34:23.346Z,5624
2016-11-25T16:34:51.199Z,5556
2016-11-25T16:35:19.029Z,5468
2016-11-25T16:35:47.020Z,5444
2016-11-25T16:36:14.809Z,5360
2016-11-25T16:36:42.671Z,5168
2016-11-25T16:37:10.563Z,5084
2016-11-25T16:37:38.632Z,4940
2016-11-25T16:38:06.567Z,4816
2016-11-25T16:38:34.549Z,4716
2016-11-25T16:39:02.482Z,4596
2016-11-25T16:39:30.296Z,4552
2016-11-25T16:39:58.111Z,4496
2016-11-25T16:40:26.048Z,4444
2016-11-25T16:40:53.978Z,4396
2016-11-25T16:41:21.793Z,4332
2016-11-25T16:41:49.821Z,4276
2016-11-25T16:42:17.671Z,4240
2016-11-25T16:42:45.511Z,4212
2016-11-25T16:43:13.635Z,4176
2016-11-25T16:43:41.461Z,4124
2016-11-25T16:44:09.280Z,4104
2016-11-25T16:44:37.241Z,4100
2016-11-25T16:45:05.068Z,4144
2016-11-25T16:45:32.876Z,4268
2016-11-25T16:46:00.745Z,4336
2016-11-25T16:46:28.580Z,4460
2016-11-25T16:46:56.510Z,4588
2016-11-25T16:47:24.276Z,4768
2016-11-25T16:47:52.090Z,4824
2016-11-25T16:48:20.305Z,5012
2016-11-25T16:48:48.128Z,5184
2016-11-25T16:49:15.903Z,5304
2016-11-25T16:49:44.659Z,5292
2016-11-25T16:50:12.464Z,5296
2016-11-25T16:50:40.476Z,5140
2016-11-25T16:51:08.261Z,5048
2016-11-25T16:51:36.092Z,4884
2016-11-25T16:52:04.064Z,4836
2016-11-25T16:52:31.925Z,4828
2016-11-25T16:52:59.905Z,4824
2016-11-25T16:53:27.728Z,4816
2016-11-25T16:53:55.501Z,4844
2016-11-25T16:54:23.386Z,4736
2016-11-25T16:54:51.357Z,4636
2016-11-25T16:55:19.365Z,4588
2016-11-25T16:55:47.202Z,4600
2016-11-25T16:56:15.214Z,4644
2016-11-25T16:56:43.115Z,4632
2016-11-25T16:57:11.004Z,4724
2016-11-25T16:57:38.955Z,4796
2016-11-25T16:58:06.920Z,4924
2016-11-25T16:58:34.801Z,4944
2016-11-25T16:59:02.727Z,5172
2016-11-25T16:59:30.753Z,5192
2016-11-25T16:59:58.770Z,5172
2016-11-25T17:00:26.662Z,5024
2016-11-25T17:00:54.626Z,4924
2016-11-25T17:01:22.440Z,4864
2016-11-25T17:01:50.370Z,4764
2016-11-25T17:02:18.256Z,4724
2016-11-25T17:02:46.121Z,4676
2016-11-25T17:03:13.983Z,4640
2016-11-25T17:03:41.852Z,4628
2016-11-25T17:04:09.649Z,4628
2016-11-25T17:04:37.609Z,4596
2016-11-25T17:05:05.392Z,4668
2016-11-25T17:05:33.149Z,4764
2016-11-25T17:06:01.058Z,4932
2016-11-25T17:06:29.005Z,4860
2016-11-25T17:06:56.923Z,4824
2016-11-25T17:07:24.841Z,4776
2016-11-25T17:07:52.726Z,4732
2016-11-25T17:08:21.103Z,4772
2016-11-25T17:08:48.957Z,4740
2016-11-25T17:09:16.794Z,4784
2016-11-25T17:09:44.658Z,4796
2016-11-25T17:10:12.716Z,4768
2016-11-25T17:10:40.523Z,4800
2016-11-25T17:11:08.293Z,4900
2016-11-25T17:11:36.084Z,4944
2016-11-25T17:12:04.035Z,4936
2016-11-25T17:12:31.865Z,4888
2016-11-25T17:12:59.810Z,4892
2016-11-25T17:13:27.732Z,4964
2016-11-25T17:13:55.669Z,5072
2016-11-25T17:14:23.623Z,5092
2016-11-25T17:14:51.429Z,5140
2016-11-25T17:15:19.266Z,5216
2016-11-25T17:15:47.069Z,5256
2016-11-25T17:16:14.923Z,5300
2016-11-25T17:16:42.978Z,5272
2016-11-25T17:17:10.888Z,5284
2016-11-25T17:17:38.701Z,5236
2016-11-25T17:18:06.882Z,5152
2016-11-25T17:18:34.727Z,5224
2016-11-25T17:19:02.537Z,5160
2016-11-25T17:19:30.570Z,5368
2016-11-25T17:19:58.428Z,5424
2016-11-25T17:20:26.239Z,5460
2016-11-25T17:20:54.404Z,5532
2016-11-25T17:21:22.220Z,5444
2016-11-25T17:21:49.999Z,5516
2016-11-25T17:22:17.915Z,5608
2016-11-25T17:22:45.699Z,5592
2016-11-25T17:23:13.897Z,5528
2016-11-25T17:23:41.719Z,5504
2016-11-25T17:24:09.576Z,5440
2016-11-25T17:24:37.582Z,5484
2016-11-25T17:25:05.397Z,5492
2016-11-25T17:25:33.178Z,5508
2016-11-25T17:26:01.131Z,5424
2016-11-25T17:26:28.938Z,5324
2016-11-25T17:26:56.823Z,5260
2016-11-25T17:27:24.823Z,5196
2016-11-25T17:27:52.602Z,5148
2016-11-25T17:28:20.570Z,5116
2016-11-25T17:28:48.488Z,5216
2016-11-25T17:29:16.446Z,5216
2016-11-25T17:29:44.261Z,5176
2016-11-25T17:30:12.074Z,5192
2016-11-25T17:30:40.057Z,5128
2016-11-25T17:31:07.882Z,5144
2016-11-25T17:31:35.807Z,5204
2016-11-25T17:32:03.634Z,5252
2016-11-25T17:32:31.566Z,5240
2016-11-25T17:32:59.610Z,5228
2016-11-25T17:33:28.065Z,5264
2016-11-25T17:33:55.993Z,5236
2016-11-25T17:34:23.897Z,5200
2016-11-25T17:34:51.709Z,5176
2016-11-25T17:35:19.718Z,5168
2016-11-25T17:35:47.668Z,5144
2016-11-25T17:36:15.513Z,5164
2016-11-25T17:36:43.382Z,5152
2016-11-25T17:37:11.168Z,5132
2016-11-25T17:37:38.975Z,5112
2016-11-25T17:38:06.956Z,5096
2016-11-25T17:38:34.922Z,5088
2016-11-25T17:39:03.315Z,5112
2016-11-25T17:39:31.166Z,5040
2016-11-25T17:39:59.046Z,5068
2016-11-25T17:40:26.854Z,5036
2016-11-25T17:40:54.743Z,5060
2016-11-25T17:41:22.601Z,5056
2016-11-25T17:41:50.506Z,5008
2016-11-25T17:42:18.383Z,4996
2016-11-25T17:42:46.169Z,4976
2016-11-25T17:43:14.158Z,4936
2016-11-25T17:43:41.978Z,4884
2016-11-25T17:44:09.801Z,4856
2016-11-25T17:44:37.632Z,4868
2016-11-25T17:45:05.441Z,4868
2016-11-25T17:45:33.292Z,4832
2016-11-25T17:46:01.075Z,4808
2016-11-25T17:46:28.969Z,4768
2016-11-25T17:46:56.766Z,4748
2016-11-25T17:47:24.790Z,4760
2016-11-25T17:47:52.569Z,4748
2016-11-25T17:48:20.623Z,4792
2016-11-25T17:48:48.541Z,4836
2016-11-25T17:49:16.309Z,4864
2016-11-25T17:49:44.368Z,4920
2016-11-25T17:50:12.161Z,4928
2016-11-25T17:50:40.228Z,4908
2016-11-25T17:51:08.144Z,4860
2016-11-25T17:51:36.171Z,4900
2016-11-25T17:52:03.996Z,4896
2016-11-25T17:52:31.841Z,4892
2016-11-25T17:53:00.048Z,4736
2016-11-25T17:53:27.988Z,4568
2016-11-25T17:53:55.880Z,4656
2016-11-25T17:54:23.740Z,4880
2016-11-25T17:54:51.698Z,4916
2016-11-25T17:55:19.842Z,4924
2016-11-25T17:55:47.762Z,4864
2016-11-25T17:56:16.126Z,4904
2016-11-25T17:56:44.169Z,4880
2016-11-25T17:57:11.969Z,4724
2016-11-25T17:57:40.083Z,4524
2016-11-25T17:58:07.973Z,4716
2016-11-25T17:58:36.037Z,4912
2016-11-25T17:59:03.875Z,4936
2016-11-25T17:59:31.801Z,4908
2016-11-25T17:59:59.574Z,4904
2016-11-25T18:00:27.413Z,4884
2016-11-25T18:00:55.425Z,4868
2016-11-25T18:01:23.394Z,4824
2016-11-25T18:01:51.344Z,4884
2016-11-25T18:02:19.105Z,4892
2016-11-25T18:02:46.942Z,4968
2016-11-25T18:03:14.826Z,4952
2016-11-25T18:03:42.813Z,4944
2016-11-25T18:04:10.793Z,4880
2016-11-25T18:04:38.728Z,4844
2016-11-25T18:05:06.537Z,4836
2016-11-25T18:05:34.647Z,4812
2016-11-25T18:06:02.479Z,4800
2016-11-25T18:06:30.263Z,4800
2016-11-25T18:06:58.103Z,4808
2016-11-25T18:07:26.027Z,4820
2016-11-25T18:07:54.006Z,4816
2016-11-25T18:08:21.880Z,4772
2016-11-25T18:08:49.856Z,4724
2016-11-25T18:09:17.662Z,4696
2016-11-25T18:09:45.470Z,4644
2016-11-25T18:10:13.430Z,4544
2016-11-25T18:10:41.305Z,4656
2016-11-25T18:11:09.179Z,4496
2016-11-25T18:11:37.052Z,4580
2016-11-25T18:12:04.855Z,4576
2016-11-25T18:12:32.657Z,4460
2016-11-25T18:13:00.449Z,4232
2016-11-25T18:13:28.376Z,4128
2016-11-25T18:13:56.130Z,4616
2016-11-25T18:14:24.160Z,4820
2016-11-25T18:14:51.951Z,4340
2016-11-25T18:15:19.838Z,4708
2016-11-25T18:15:47.733Z,4732
2016-11-25T18:16:15.635Z,4744
2016-11-25T18:16:43.541Z,4756
2016-11-25T18:17:11.305Z,4720
2016-11-25T18:17:39.122Z,4728
2016-11-25T18:18:06.971Z,4748
2016-11-25T18:18:34.941Z,4716
2016-11-25T18:19:02.722Z,4764
2016-11-25T18:19:30.500Z,4736
2016-11-25T18:19:58.348Z,4492
2016-11-25T18:20:26.474Z,4524
2016-11-25T18:20:54.435Z,4708
2016-11-25T18:21:22.386Z,4660
2016-11-25T18:21:50.370Z,4584
2016-11-25T18:22:18.256Z,4560
2016-11-25T18:22:46.120Z,4476
2016-11-25T18:23:14.027Z,4328
2016-11-25T18:23:42.058Z,4308
2016-11-25T18:24:09.846Z,4276
2016-11-25T18:24:37.635Z,4264
2016-11-25T18:25:05.858Z,4220
2016-11-25T18:25:33.623Z,4272
2016-11-25T18:26:01.527Z,4184
2016-11-25T18:26:29.317Z,4092
2016-11-25T18:26:57.204Z,4016
2016-11-25T18:27:25.268Z,3948
2016-11-25T18:27:53.084Z,3816
2016-11-25T18:28:21.053Z,3876
2016-11-25T18:28:49.119Z,3960
2016-11-25T18:29:17.002Z,3880
2016-11-25T18:29:44.936Z,3836
2016-11-25T18:30:12.771Z,3684
2016-11-25T18:30:40.532Z,3696
2016-11-25T18:31:08.435Z,3568
2016-11-25T18:31:36.290Z,3432
2016-11-25T18:32:04.099Z,3408
2016-11-25T18:32:32.123Z,3432
2016-11-25T18:32:59.980Z,3476
2016-11-25T18:33:27.883Z,3580
2016-11-25T18:33:56.287Z,3644
2016-11-25T18:34:24.091Z,3800
2016-11-25T18:34:51.892Z,3908
2016-11-25T18:35:19.739Z,3756
2016-11-25T18:35:47.606Z,3660
2016-11-25T18:36:15.446Z,3564
2016-11-25T18:36:43.240Z,3676
2016-11-25T18:37:11.091Z,3784
2016-11-25T18:37:39.117Z,3872
2016-11-25T18:38:06.968Z,3828
2016-11-25T18:38:35.020Z,3768
2016-11-25T18:39:02.924Z,3684
2016-11-25T18:39:30.687Z,3628
2016-11-25T18:39:58.537Z,3568
2016-11-25T18:40:26.471Z,3456
2016-11-25T18:40:54.371Z,3348
2016-11-25T18:41:22.214Z,3088
2016-11-25T18:41:50.098Z,2816
2016-11-25T18:42:17.968Z,2560
2016-11-25T18:42:45.811Z,2440
2016-11-25T18:43:13.620Z,2520
2016-11-25T18:43:41.466Z,2576
2016-11-25T18:44:09.431Z,2616
2016-11-25T18:44:37.213Z,2640
2016-11-25T18:45:05.219Z,2540
2016-11-25T18:45:33.131Z,2404
2016-11-25T18:46:00.891Z,2280
2016-11-25T18:46:28.761Z,2248
2016-11-25T18:46:56.859Z,2352
2016-11-25T18:47:24.725Z,2336
2016-11-25T18:47:52.642Z,2372
2016-11-25T18:48:20.440Z,2404
2016-11-25T18:48:48.510Z,2440
2016-11-25T18:49:16.422Z,2616
2016-11-25T18:49:44.227Z,2812
2016-11-25T18:50:12.108Z,2852
2016-11-25T18:50:39.985Z,2992
2016-11-25T18:51:07.743Z,2940
2016-11-25T18:51:35.490Z,2884
2016-11-25T18:52:03.509Z,2892
2016-11-25T18:52:31.290Z,2832
2016-11-25T18:52:59.069Z,2700
2016-11-25T18:53:26.815Z,2596
2016-11-25T18:53:54.748Z,2524
2016-11-25T18:54:22.631Z,2468
2016-11-25T18:54:50.513Z,2488
2016-11-25T18:55:18.512Z,2492
2016-11-25T18:55:46.357Z,2452
2016-11-25T18:56:14.130Z,2420
2016-11-25T18:56:41.888Z,2360
2016-11-25T18:57:09.903Z,2260
2016-11-25T18:57:37.756Z,2060
2016-11-25T18:58:05.636Z,1888
2016-11-25T18:58:33.472Z,1736
2016-11-25T18:59:01.255Z,1676
2016-11-25T18:59:29.122Z,1720
2016-11-25T18:59:57.166Z,1712
2016-11-25T19:00:24.981Z,1652
2016-11-25T19:00:52.883Z,1624
2016-11-25T19:01:20.832Z,1644
2016-11-25T19:01:48.629Z,1684
2016-11-25T19:02:16.491Z,1676
2016-11-25T19:02:44.454Z,1672
2016-11-25T19:03:12.260Z,1672
2016-11-25T19:03:40.140Z,1680
2016-11-25T19:04:08.075Z,1632
2016-11-25T19:04:35.893Z,1596
2016-11-25T19:05:03.788Z,1592
2016-11-25T19:05:31.649Z,1600
2016-11-25T19:05:59.443Z,1604
2016-11-25T19:06:27.325Z,1540
2016-11-25T19:06:55.282Z,1476
2016-11-25T19:07:23.165Z,1464
2016-11-25T19:07:50.963Z,1484
2016-11-25T19:08:18.862Z,1532
2016-11-25T19:08:47.088Z,1568
2016-11-25T19:09:15.036Z,1564
2016-11-25T19:09:42.973Z,1528
2016-11-25T19:10:10.982Z,1480
2016-11-25T19:10:39.148Z,1424
2016-11-25T19:11:07.039Z,1380
2016-11-25T19:11:34.895Z,1400
2016-11-25T19:12:02.814Z,1392
2016-11-25T19:12:31.278Z,1380
2016-11-25T19:12:59.632Z,1372
2016-11-25T19:13:27.486Z,1364
2016-11-25T19:13:55.407Z,1360
2016-11-25T19:14:23.436Z,1384
2016-11-25T19:14:51.933Z,1432
2016-11-25T19:15:19.909Z,1468
2016-11-25T19:15:47.775Z,1508
2016-11-25T19:16:15.565Z,1532
2016-11-25T19:16:43.469Z,1520
2016-11-25T19:17:11.409Z,1500
2016-11-25T19:17:39.580Z,1436
2016-11-25T19:18:07.388Z,1360
2016-11-25T19:18:35.325Z,1376
2016-11-25T19:19:03.255Z,1432
2016-11-25T19:19:31.059Z,1504
2016-11-25T19:19:59.590Z,1568
2016-11-25T19:20:27.488Z,1568
2016-11-25T19:20:55.270Z,1580
2016-11-25T19:21:23.922Z,1596
2016-11-25T19:21:51.775Z,1604
2016-11-25T19:22:19.666Z,1608
2016-11-25T19:22:47.458Z,1620
2016-11-25T19:23:15.333Z,1608
2016-11-25T19:23:43.380Z,1592
2016-11-25T19:24:11.260Z,1580
2016-11-25T19:24:39.212Z,1584
2016-11-25T19:25:07.140Z,1608
2016-11-25T19:25:35.642Z,1640
2016-11-25T19:26:03.618Z,1648
2016-11-25T19:26:31.561Z,1588
2016-11-25T19:27:00.232Z,1532
2016-11-25T19:27:28.188Z,1528
2016-11-25T19:27:56.161Z,1556
2016-11-25T19:28:24.317Z,1564
2016-11-25T19:28:52.312Z,1560
2016-11-25T19:29:20.345Z,1552
2016-11-25T19:29:48.915Z,1516
2016-11-25T19:30:17.948Z,1456
2016-11-25T19:30:46.477Z,1356
2016-11-25T19:31:14.927Z,1248
2016-11-25T19:31:43.076Z,1176
2016-11-25T19:32:11.082Z,1136
2016-11-25T19:32:39.019Z,1132
2016-11-25T19:33:07.056Z,1112
2016-11-25T19:33:35.103Z,1076
2016-11-25T19:34:03.818Z,1036
2016-11-25T19:34:32.584Z,1008
2016-11-25T19:35:00.568Z,988
2016-11-25T19:35:28.560Z,972
2016-11-25T19:35:56.354Z,952
2016-11-25T19:36:24.149Z,936
2016-11-25T19:36:51.975Z,936
2016-11-25T19:37:19.896Z,932
2016-11-25T19:37:47.795Z,948
2016-11-25T19:38:15.693Z,968
2016-11-25T19:38:43.565Z,980
2016-11-25T19:39:11.634Z,964
2016-11-25T19:39:39.587Z,944
2016-11-25T19:40:07.545Z,924
2016-11-25T19:40:36.022Z,904
2016-11-25T19:41:04.369Z,868
2016-11-25T19:41:32.631Z,828
2016-11-25T19:42:00.612Z,800
2016-11-25T19:42:28.640Z,792
2016-11-25T19:42:56.652Z,764
2016-11-25T19:43:24.826Z,732
2016-11-25T19:43:52.676Z,704
2016-11-25T19:44:20.591Z,688
2016-11-25T19:44:48.679Z,664
2016-11-25T19:45:16.629Z,644
2016-11-25T19:45:44.687Z,616
2016-11-25T19:46:12.993Z,588
2016-11-25T19:46:41.283Z,560
2016-11-25T19:47:09.281Z,544
2016-11-25T19:47:37.322Z,540
2016-11-25T19:48:05.176Z,536
2016-11-25T19:48:33.749Z,528
2016-11-25T19:49:01.821Z,516
2016-11-25T19:49:29.630Z,508
2016-11-25T19:49:58.102Z,496
2016-11-25T19:50:26.064Z,484
2016-11-25T19:50:53.949Z,472
2016-11-25T19:51:21.722Z,452
2016-11-25T19:51:49.706Z,428
2016-11-25T19:52:17.483Z,416
2016-11-25T19:52:45.424Z,416
2016-11-25T19:53:13.305Z,416
2016-11-25T19:53:41.209Z,404
2016-11-25T19:54:09.098Z,400
2016-11-25T19:54:36.880Z,392
2016-11-25T19:55:04.701Z,396
2016-11-25T19:55:32.623Z,388
2016-11-25T19:56:00.536Z,380
2016-11-25T19:56:28.453Z,372
2016-11-25T19:56:56.338Z,360
2016-11-25T19:57:24.348Z,356
2016-11-25T19:57:52.286Z,348
2016-11-25T19:58:20.258Z,340
2016-11-25T19:58:48.163Z,340
2016-11-25T19:59:16.130Z,332
2016-11-25T19:59:44.065Z,332
2016-11-25T20:00:11.958Z,324
2016-11-25T20:00:39.999Z,320
2016-11-25T20:01:07.870Z,308
2016-11-25T20:01:35.667Z,300
2016-11-25T20:02:03.438Z,292
2016-11-25T20:02:31.294Z,288
2016-11-25T20:02:59.100Z,284
2016-11-25T20:03:27.005Z,280
2016-11-25T20:03:54.889Z,276
2016-11-25T20:04:22.790Z,272
2016-11-25T20:04:50.704Z,268
2016-11-25T20:05:18.447Z,268
2016-11-25T20:05:46.323Z,268
2016-11-25T20:06:14.252Z,268
2016-11-25T20:06:42.181Z,268
2016-11-25T20:07:10.100Z,264
2016-11-25T20:07:37.919Z,264
2016-11-25T20:08:05.715Z,260
2016-11-25T20:08:33.600Z,252
2016-11-25T20:09:01.622Z,252
2016-11-25T20:09:29.562Z,244
2016-11-25T20:09:57.425Z,244
2016-11-25T20:10:25.259Z,240
2016-11-25T20:10:53.133Z,236
2016-11-25T20:11:20.943Z,232
2016-11-25T20:11:48.731Z,232
2016-11-25T20:12:16.560Z,232
2016-11-25T20:12:44.344Z,228
2016-11-25T20:13:12.211Z,228
2016-11-25T20:13:39.967Z,228
2016-11-25T20:14:07.864Z,224
2016-11-25T20:14:35.778Z,224
2016-11-25T20:15:03.562Z,220
2016-11-25T20:15:31.388Z,224
2016-11-25T20:15:59.269Z,224
2016-11-25T20:16:27.035Z,220
2016-11-25T20:16:54.900Z,220
2016-11-25T20:17:22.700Z,220
2016-11-25T20:17:50.491Z,216
2016-11-25T20:18:18.358Z,216
2016-11-25T20:18:46.157Z,216
2016-11-25T20:19:14.019Z,220
2016-11-25T20:19:41.782Z,220
2016-11-25T20:20:09.654Z,220
2016-11-25T20:20:37.480Z,220
2016-11-25T20:21:05.355Z,224
2016-11-25T20:21:33.208Z,220
2016-11-25T20:22:01.088Z,220
2016-11-25T20:22:29.007Z,216
2016-11-25T20:22:56.955Z,212
2016-11-25T20:23:24.768Z,208
2016-11-25T20:23:52.612Z,200
2016-11-25T20:24:20.619Z,196
2016-11-25T20:24:48.428Z,196
2016-11-25T20:25:16.212Z,188
2016-11-25T20:25:44.253Z,192
2016-11-25T20:26:12.110Z,188